Terminal Aerodrome Forecast
Issued by NWS

Home | Current Version | Previous Version | Text Only | Print | Product List | Glossary On
Versions: 1 2 3 4 5 6 7 8 9 10 11 12 13 14 15 16 17 18
000
FTUS41 KGYX 280527
TAFLEB
TAF
KLEB 280527Z 2806/2906 VRB03KT P6SM OVC015
      TEMPO 2807/2811 5SM -SHSN
     FM281400 33006KT P6SM BKN050
     FM282200 VRB03KT P6SM SKC=

USA.gov is the U.S. government's official web portal to all federal, state and local government web resources and services.